TimeCDT,TemperatureF,Dew PointF,Humidity,Sea Level PressureIn,VisibilityMPH,Wind Direction,Wind SpeedMPH,Gust SpeedMPH,PrecipitationIn,Events,Conditions,WindDirDegrees,DateUTC
12:53 AM,44.1,21.0,40,30.04,10.0,ESE,6.9,-,N/A,,Clear,110,2013-03-12 05:53:00
1:53 AM,42.1,21.0,43,30.06,10.0,East,3.5,-,N/A,,Clear,100,2013-03-12 06:53:00
2:53 AM,41.0,19.0,41,30.09,10.0,Calm,Calm,-,N/A,,Clear,0,2013-03-12 07:53:00
3:53 AM,35.1,25.0,67,30.10,10.0,WSW,3.5,-,N/A,,Clear,240,2013-03-12 08:53:00
4:53 AM,35.1,21.0,57,30.11,10.0,NE,3.5,-,N/A,,Clear,40,2013-03-12 09:53:00
5:53 AM,35.1,24.1,64,30.17,10.0,North,6.9,-,N/A,,Clear,10,2013-03-12 10:53:00
6:53 AM,36.0,25.0,64,30.19,10.0,Calm,Calm,-,N/A,,Clear,0,2013-03-12 11:53:00
7:53 AM,36.0,27.0,70,30.21,10.0,South,3.5,-,N/A,,Clear,180,2013-03-12 12:53:00
8:53 AM,37.9,28.0,68,30.23,9.0,Calm,Calm,-,N/A,,Clear,0,2013-03-12 13:53:00
9:53 AM,46.9,28.0,48,30.25,10.0,Calm,Calm,-,N/A,,Clear,0,2013-03-12 14:53:00
10:53 AM,52.0,33.1,49,30.26,10.0,WNW,3.5,-,N/A,,Clear,290,2013-03-12 15:53:00
11:53 AM,55.9,36.0,47,30.27,10.0,Variable,6.9,-,N/A,,Clear,0,2013-03-12 16:53:00
12:53 PM,57.9,35.1,42,30.28,10.0,NW,10.4,-,0.00,,Partly Cloudy,320,2013-03-12 17:53:00
1:53 PM,57.9,34.0,41,30.27,10.0,Variable,5.8,16.1,N/A,,Scattered Clouds,0,2013-03-12 18:53:00
2:53 PM,59.0,33.1,38,30.25,10.0,NNW,11.5,16.1,N/A,,Partly Cloudy,340,2013-03-12 19:53:00
3:53 PM,60.1,27.0,28,30.25,10.0,NNW,8.1,-,N/A,,Clear,340,2013-03-12 20:53:00
4:53 PM,59.0,28.0,31,30.26,10.0,North,12.7,18.4,N/A,,Clear,360,2013-03-12 21:53:00
5:53 PM,60.1,26.1,27,30.26,10.0,North,4.6,-,N/A,,Clear,360,2013-03-12 22:53:00
6:53 PM,57.0,26.1,30,30.27,10.0,Variable,3.5,-,N/A,,Clear,0,2013-03-12 23:53:00
7:53 PM,53.1,28.0,38,30.30,10.0,Calm,Calm,-,N/A,,Clear,0,2013-03-13 00:53:00
8:53 PM,51.1,28.0,41,30.32,10.0,Calm,Calm,-,N/A,,Clear,0,2013-03-13 01:53:00
9:53 PM,41.0,28.0,60,30.34,10.0,Calm,Calm,-,N/A,,Clear,0,2013-03-13 02:53:00
10:53 PM,46.0,28.0,50,30.34,10.0,Calm,Calm,-,N/A,,Clear,0,2013-03-13 03:53:00
11:53 PM,43.0,28.0,56,30.36,10.0,NE,3.5,-,N/A,,Clear,40,2013-03-13 04:53:00